createdAt,value
2022-12-03T00:00:11.875Z,2.48
2022-12-03T00:01:06.170Z,2.50
2022-12-03T00:02:06.211Z,2.45
2022-12-03T00:03:06.322Z,2.40
2022-12-03T00:04:06.215Z,2.40
2022-12-03T00:05:06.103Z,2.39
2022-12-03T00:06:06.088Z,2.42
2022-12-03T00:07:06.210Z,2.37
2022-12-03T00:08:06.142Z,2.37
2022-12-03T00:09:06.117Z,2.42
2022-12-03T00:10:06.065Z,2.45
2022-12-03T00:11:06.046Z,2.40
2022-12-03T00:12:06.061Z,2.40
2022-12-03T00:13:06.055Z,2.42
2022-12-03T00:14:06.053Z,2.43
2022-12-03T00:15:06.012Z,2.50
2022-12-03T00:16:06.154Z,2.48
2022-12-03T00:17:05.993Z,2.48
2022-12-03T00:18:06.022Z,2.47
2022-12-03T00:19:06.013Z,2.48
2022-12-03T00:20:05.976Z,2.53
2022-12-03T00:21:05.965Z,2.58
2022-12-03T00:22:05.958Z,2.58
2022-12-03T00:23:05.946Z,2.65
2022-12-03T00:24:06.313Z,2.69
2022-12-03T00:25:06.957Z,2.69
2022-12-03T00:26:06.834Z,2.68
2022-12-03T00:27:05.920Z,2.72
2022-12-03T00:28:05.925Z,2.68
2022-12-03T00:29:05.892Z,2.61
2022-12-03T00:30:05.899Z,2.54
2022-12-03T00:31:05.947Z,2.55
2022-12-03T00:32:05.851Z,2.51
2022-12-03T00:33:05.834Z,2.51
2022-12-03T00:34:05.839Z,2.45
2022-12-03T00:35:05.807Z,2.47
2022-12-03T00:36:05.805Z,2.48
2022-12-03T00:37:05.821Z,2.51
2022-12-03T00:38:05.791Z,2.55
2022-12-03T00:39:05.834Z,2.60
2022-12-03T00:40:05.756Z,2.61
2022-12-03T00:41:05.771Z,2.63
2022-12-03T00:42:05.746Z,2.66
2022-12-03T00:43:05.762Z,2.65
2022-12-03T00:44:05.729Z,2.71
2022-12-03T00:45:05.718Z,2.69
2022-12-03T00:46:05.910Z,2.69
2022-12-03T00:47:05.824Z,2.69
2022-12-03T00:48:05.687Z,2.71
2022-12-03T00:49:05.686Z,2.72
2022-12-03T00:50:05.696Z,2.72
2022-12-03T00:51:05.691Z,2.71
2022-12-03T00:52:05.603Z,2.65
2022-12-03T00:53:05.623Z,2.68
2022-12-03T00:54:05.655Z,2.66
2022-12-03T00:55:05.625Z,2.65
2022-12-03T00:56:05.603Z,2.68
2022-12-03T00:57:05.591Z,2.65
2022-12-03T00:58:05.587Z,2.63
2022-12-03T00:59:05.649Z,2.66
2022-12-03T01:00:05.610Z,2.60
2022-12-03T01:01:05.576Z,2.65
2022-12-03T01:02:05.631Z,2.68
2022-12-03T01:03:06.065Z,2.66
2022-12-03T01:04:05.541Z,2.71
2022-12-03T01:05:05.613Z,2.71
2022-12-03T01:06:05.527Z,2.69
2022-12-03T01:07:05.622Z,2.65
2022-12-03T01:08:05.565Z,2.61
2022-12-03T01:09:05.488Z,2.66
2022-12-03T01:10:05.531Z,2.65
2022-12-03T01:11:05.460Z,2.66
2022-12-03T01:12:05.441Z,2.66
2022-12-03T01:13:05.456Z,2.66
2022-12-03T01:14:05.436Z,2.69
2022-12-03T01:15:05.455Z,2.71
2022-12-03T01:16:05.461Z,2.73
2022-12-03T01:17:05.464Z,2.76
2022-12-03T01:18:05.407Z,2.76
2022-12-03T01:19:05.384Z,2.76
2022-12-03T01:20:05.383Z,2.75
2022-12-03T01:21:05.393Z,2.76
2022-12-03T01:22:05.385Z,2.75
2022-12-03T01:23:05.339Z,2.71
2022-12-03T01:24:05.329Z,2.73
2022-12-03T01:25:05.342Z,2.72
2022-12-03T01:26:05.317Z,2.76
2022-12-03T01:27:05.329Z,2.81
2022-12-03T01:28:05.328Z,2.78
2022-12-03T01:29:05.344Z,2.73
2022-12-03T01:30:05.475Z,2.71
2022-12-03T01:31:05.349Z,2.72
2022-12-03T01:32:05.257Z,2.73
2022-12-03T01:33:05.281Z,2.75
2022-12-03T01:34:05.271Z,2.75
2022-12-03T01:35:05.251Z,2.73
2022-12-03T01:36:05.249Z,2.81
2022-12-03T01:37:05.218Z,2.78
2022-12-03T01:38:05.237Z,2.84
2022-12-03T01:39:05.195Z,2.87
2022-12-03T01:40:05.223Z,2.89
2022-12-03T01:41:08.677Z,2.91
2022-12-03T01:42:05.294Z,2.91
2022-12-03T01:43:05.225Z,2.91
2022-12-03T01:44:05.219Z,2.94
2022-12-03T01:45:05.190Z,2.96
2022-12-03T01:46:05.302Z,2.96
2022-12-03T01:47:05.163Z,2.99
2022-12-03T01:48:05.106Z,2.94
2022-12-03T01:49:05.087Z,2.97
2022-12-03T01:50:06.455Z,2.97
2022-12-03T01:51:05.075Z,2.99
2022-12-03T01:52:05.085Z,2.96
2022-12-03T01:53:05.067Z,2.96
2022-12-03T01:54:05.050Z,2.97
2022-12-03T01:55:05.051Z,2.90
2022-12-03T01:56:05.034Z,2.94
2022-12-03T01:57:05.040Z,2.93
2022-12-03T01:58:05.018Z,2.94
2022-12-03T01:59:05.033Z,2.91
2022-12-03T02:00:04.974Z,2.96
2022-12-03T02:01:05.023Z,2.93
2022-12-03T02:02:05.030Z,2.96
2022-12-03T02:03:04.954Z,2.96
2022-12-03T02:04:04.984Z,2.97
2022-12-03T02:05:04.943Z,3.00
2022-12-03T02:06:04.956Z,3.00
2022-12-03T02:07:05.016Z,3.04
2022-12-03T02:08:04.972Z,3.05
2022-12-03T02:09:04.905Z,2.96
2022-12-03T02:10:04.905Z,2.87
2022-12-03T02:11:04.920Z,2.90
2022-12-03T02:12:04.854Z,2.89
2022-12-03T02:13:04.925Z,2.91
2022-12-03T02:14:04.923Z,2.93
2022-12-03T02:15:04.833Z,2.91
2022-12-03T02:16:04.864Z,2.90
2022-12-03T02:17:04.844Z,2.89
2022-12-03T02:18:04.890Z,2.91
2022-12-03T02:19:04.908Z,2.90
2022-12-03T02:20:04.820Z,2.93
2022-12-03T02:21:04.805Z,2.94
2022-12-03T02:22:04.813Z,2.93
2022-12-03T02:23:04.858Z,2.90
2022-12-03T02:24:04.959Z,2.90
2022-12-03T02:25:05.370Z,2.91
2022-12-03T02:26:04.767Z,2.90
2022-12-03T02:27:04.761Z,2.91
2022-12-03T02:28:04.769Z,2.94
2022-12-03T02:29:04.742Z,2.93
2022-12-03T02:30:04.693Z,2.89
2022-12-03T02:31:04.759Z,2.90
2022-12-03T02:32:04.688Z,2.94
2022-12-03T02:33:05.680Z,2.99
2022-12-03T02:34:04.706Z,3.02
2022-12-03T02:35:04.787Z,3.02
2022-12-03T02:36:04.724Z,3.04
2022-12-03T02:37:04.618Z,3.08
2022-12-03T02:38:05.612Z,3.09
2022-12-03T02:39:04.598Z,3.11
2022-12-03T02:40:04.615Z,3.11
2022-12-03T02:41:04.668Z,3.08
2022-12-03T02:42:04.661Z,3.05
2022-12-03T02:43:04.607Z,3.08
2022-12-03T02:44:05.386Z,3.05
2022-12-03T02:45:05.659Z,3.08
2022-12-03T02:46:04.595Z,3.14
2022-12-03T02:47:04.589Z,3.08
2022-12-03T02:48:04.602Z,3.07
2022-12-03T02:49:04.567Z,3.04
2022-12-03T02:50:04.488Z,3.07
2022-12-03T02:51:04.474Z,3.05
2022-12-03T02:52:04.515Z,3.07
2022-12-03T02:53:04.448Z,3.08
2022-12-03T02:54:04.468Z,3.08
2022-12-03T02:55:04.493Z,3.07
2022-12-03T02:56:05.375Z,3.08
2022-12-03T02:57:04.429Z,3.08
2022-12-03T02:58:04.409Z,3.07
2022-12-03T02:59:04.412Z,3.02
2022-12-03T03:00:04.403Z,3.00
2022-12-03T03:01:04.447Z,3.07
2022-12-03T03:02:04.433Z,3.07
2022-12-03T03:03:04.348Z,3.07
2022-12-03T03:04:04.368Z,3.09
2022-12-03T03:05:04.339Z,3.08
2022-12-03T03:06:04.340Z,3.08
2022-12-03T03:07:04.309Z,3.08
2022-12-03T03:08:04.405Z,3.08
2022-12-03T03:09:04.302Z,3.07
2022-12-03T03:10:04.298Z,3.07
2022-12-03T03:11:04.291Z,3.11
2022-12-03T03:12:04.296Z,3.07
2022-12-03T03:13:04.265Z,3.11
2022-12-03T03:14:04.264Z,3.08
2022-12-03T03:15:04.232Z,3.11
2022-12-03T03:16:04.686Z,3.11
2022-12-03T03:17:04.276Z,3.09
2022-12-03T03:18:04.267Z,3.05
2022-12-03T03:19:04.200Z,3.05
2022-12-03T03:20:04.205Z,3.02
2022-12-03T03:21:04.241Z,3.00
2022-12-03T03:22:04.191Z,2.96
2022-12-03T03:23:04.173Z,2.97
2022-12-03T03:24:04.149Z,2.91
2022-12-03T03:25:04.144Z,2.89
2022-12-03T03:26:04.147Z,2.93
2022-12-03T03:27:04.150Z,2.93
2022-12-03T03:28:04.178Z,2.97
2022-12-03T03:29:04.103Z,3.04
2022-12-03T03:30:04.091Z,3.02
2022-12-03T03:31:04.072Z,2.99
2022-12-03T03:32:04.148Z,3.02
2022-12-03T03:33:04.087Z,3.05
2022-12-03T03:34:04.053Z,3.04
2022-12-03T03:35:04.029Z,3.07
2022-12-03T03:36:04.028Z,3.05
2022-12-03T03:37:04.029Z,3.09
2022-12-03T03:38:04.054Z,3.07
2022-12-03T03:39:04.072Z,3.05
2022-12-03T03:40:03.977Z,3.02
2022-12-03T03:41:03.996Z,2.99
2022-12-03T03:42:03.979Z,2.99
2022-12-03T03:43:03.966Z,3.00
2022-12-03T03:44:03.966Z,3.00
2022-12-03T03:45:03.927Z,3.02
2022-12-03T03:46:04.004Z,3.04
2022-12-03T03:47:03.958Z,2.97
2022-12-03T03:48:03.936Z,2.94
2022-12-03T03:49:03.924Z,2.91
2022-12-03T03:50:03.897Z,2.90
2022-12-03T03:51:03.919Z,2.91
2022-12-03T03:52:03.889Z,2.93
2022-12-03T03:53:03.966Z,2.94
2022-12-03T03:54:03.879Z,2.94
2022-12-03T03:55:03.843Z,2.94
2022-12-03T03:56:03.827Z,2.99
2022-12-03T03:57:03.869Z,2.99
2022-12-03T03:58:03.860Z,2.97
2022-12-03T03:59:03.833Z,3.02
2022-12-03T04:00:03.817Z,3.00
2022-12-03T04:01:03.900Z,3.05
2022-12-03T04:02:03.883Z,3.02
2022-12-03T04:03:03.867Z,3.04
2022-12-03T04:04:04.029Z,3.02
2022-12-03T04:05:03.797Z,3.04
2022-12-03T04:06:03.729Z,2.96
2022-12-03T04:07:03.762Z,2.94
2022-12-03T04:08:03.818Z,2.96
2022-12-03T04:09:03.722Z,2.96
2022-12-03T04:10:04.042Z,2.93
2022-12-03T04:11:03.783Z,2.91
2022-12-03T04:12:03.683Z,2.90
2022-12-03T04:13:03.701Z,2.87
2022-12-03T04:14:03.734Z,2.90
2022-12-03T04:15:03.665Z,2.91
2022-12-03T04:16:03.752Z,2.89
2022-12-03T04:17:03.704Z,2.78
2022-12-03T04:18:03.631Z,2.73
2022-12-03T04:19:03.611Z,2.75
2022-12-03T04:20:03.611Z,2.73
2022-12-03T04:21:03.629Z,2.68
2022-12-03T04:22:03.629Z,2.76
2022-12-03T04:23:03.558Z,2.78
2022-12-03T04:24:04.499Z,2.81
2022-12-03T04:25:04.003Z,2.86
2022-12-03T04:26:04.602Z,2.84
2022-12-03T04:27:03.524Z,2.89
2022-12-03T04:28:03.505Z,2.86
2022-12-03T04:29:03.493Z,2.86
2022-12-03T04:30:03.499Z,2.84
2022-12-03T04:31:03.579Z,2.87
2022-12-03T04:32:03.471Z,2.87
2022-12-03T04:33:03.483Z,2.89
2022-12-03T04:34:03.468Z,2.90
2022-12-03T04:35:03.499Z,2.89
2022-12-03T04:36:03.455Z,2.91
2022-12-03T04:37:03.436Z,2.91
2022-12-03T04:38:03.415Z,2.90
2022-12-03T04:39:03.390Z,2.90
2022-12-03T04:40:03.449Z,2.89
2022-12-03T04:41:03.436Z,2.89
2022-12-03T04:42:03.384Z,2.93
2022-12-03T04:43:03.418Z,2.89
2022-12-03T04:44:03.395Z,2.82
2022-12-03T04:45:03.329Z,2.79
2022-12-03T04:46:03.405Z,2.79
2022-12-03T04:47:03.422Z,2.78
2022-12-03T04:48:03.322Z,2.78
2022-12-03T04:49:03.304Z,2.82
2022-12-03T04:50:03.311Z,2.86
2022-12-03T04:51:03.277Z,2.86
2022-12-03T04:52:03.312Z,2.82
2022-12-03T04:53:03.257Z,2.84
2022-12-03T04:54:03.258Z,2.87
2022-12-03T04:55:03.240Z,2.86
2022-12-03T04:56:03.243Z,2.89
2022-12-03T04:57:03.213Z,2.84
2022-12-03T04:58:03.255Z,2.86
2022-12-03T04:59:03.211Z,2.84
2022-12-03T05:00:03.321Z,2.82
2022-12-03T05:01:03.249Z,2.84
2022-12-03T05:02:03.244Z,2.82
2022-12-03T05:03:03.313Z,2.86
2022-12-03T05:04:03.159Z,2.86
2022-12-03T05:05:03.136Z,2.86
2022-12-03T05:06:03.139Z,2.86
2022-12-03T05:07:03.141Z,2.91
2022-12-03T05:08:03.152Z,2.89
2022-12-03T05:09:03.125Z,2.87
2022-12-03T05:10:03.122Z,2.82
2022-12-03T05:11:03.091Z,2.82
2022-12-03T05:12:03.077Z,2.81
2022-12-03T05:13:03.080Z,2.84
2022-12-03T05:14:03.109Z,2.82
2022-12-03T05:15:03.043Z,2.82
2022-12-03T05:16:03.037Z,2.78
2022-12-03T05:17:03.178Z,2.78
2022-12-03T05:18:03.016Z,2.79
2022-12-03T05:19:03.037Z,2.82
2022-12-03T05:20:03.002Z,2.82
2022-12-03T05:21:02.993Z,2.79
2022-12-03T05:22:02.999Z,2.76
2022-12-03T05:23:02.961Z,2.72
2022-12-03T05:24:02.995Z,2.71
2022-12-03T05:25:02.970Z,2.71
2022-12-03T05:26:02.936Z,2.72
2022-12-03T05:27:02.927Z,2.73
2022-12-03T05:28:02.914Z,2.73
2022-12-03T05:29:02.952Z,2.72
2022-12-03T05:30:02.929Z,2.73
2022-12-03T05:31:02.943Z,2.75
2022-12-03T05:32:02.883Z,2.75
2022-12-03T05:33:02.864Z,2.75
2022-12-03T05:34:02.865Z,2.73
2022-12-03T05:35:03.564Z,2.71
2022-12-03T05:36:02.801Z,2.72
2022-12-03T05:37:02.854Z,2.75
2022-12-03T05:38:02.856Z,2.76
2022-12-03T05:39:02.828Z,2.76
2022-12-03T05:40:02.841Z,2.78
2022-12-03T05:41:02.805Z,2.79
2022-12-03T05:42:02.804Z,2.79
2022-12-03T05:43:02.793Z,2.82
2022-12-03T05:44:02.779Z,2.82
2022-12-03T05:45:02.756Z,2.82
2022-12-03T05:46:02.792Z,2.76
2022-12-03T05:47:02.738Z,2.69
2022-12-03T05:48:02.745Z,2.69
2022-12-03T05:49:02.700Z,2.63
2022-12-03T05:50:02.731Z,2.66
2022-12-03T05:51:02.686Z,2.68
2022-12-03T05:52:02.694Z,2.68
2022-12-03T05:53:02.684Z,2.73
2022-12-03T05:54:02.680Z,2.73
2022-12-03T05:55:02.745Z,2.73
2022-12-03T05:56:02.670Z,2.72
2022-12-03T05:57:02.654Z,2.71
2022-12-03T05:58:02.625Z,2.73
2022-12-03T05:59:02.615Z,2.71
2022-12-03T06:00:02.611Z,2.73
2022-12-03T06:01:02.630Z,2.75
2022-12-03T06:02:02.662Z,2.81
2022-12-03T06:03:02.771Z,2.78
2022-12-03T06:04:02.694Z,2.81
2022-12-03T06:05:02.556Z,2.82
2022-12-03T06:06:02.577Z,2.84
2022-12-03T06:07:02.555Z,2.86
2022-12-03T06:08:02.597Z,2.86
2022-12-03T06:09:02.568Z,2.86
2022-12-03T06:10:02.512Z,2.86
2022-12-03T06:11:02.526Z,2.84
2022-12-03T06:12:02.493Z,2.78
2022-12-03T06:13:02.479Z,2.78
2022-12-03T06:14:02.490Z,2.78
2022-12-03T06:15:02.451Z,2.75
2022-12-03T06:16:02.530Z,2.75
2022-12-03T06:17:02.435Z,2.73
2022-12-03T06:18:02.442Z,2.75
2022-12-03T06:19:02.412Z,2.75
2022-12-03T06:20:02.419Z,2.72
2022-12-03T06:21:02.456Z,2.65
2022-12-03T06:22:02.396Z,2.65
2022-12-03T06:23:02.395Z,2.63
2022-12-03T06:24:02.368Z,2.68
2022-12-03T06:25:06.930Z,2.69
2022-12-03T06:26:02.359Z,2.72
2022-12-03T06:27:02.305Z,2.68
2022-12-03T06:28:02.348Z,2.61
2022-12-03T06:29:02.331Z,2.60
2022-12-03T06:30:02.335Z,2.58
2022-12-03T06:31:02.344Z,2.60
2022-12-03T06:32:02.332Z,2.61
2022-12-03T06:33:02.319Z,2.66
2022-12-03T06:34:02.345Z,2.66
2022-12-03T06:35:02.299Z,2.69
2022-12-03T06:36:02.261Z,2.71
2022-12-03T06:37:02.310Z,2.73
2022-12-03T06:38:02.233Z,2.73
2022-12-03T06:39:02.245Z,2.71
2022-12-03T06:40:02.203Z,2.73
2022-12-03T06:41:02.194Z,2.72
2022-12-03T06:42:02.144Z,2.69
2022-12-03T06:43:02.141Z,2.72
2022-12-03T06:44:02.158Z,2.68
2022-12-03T06:45:02.211Z,2.69
2022-12-03T06:46:02.145Z,2.73
2022-12-03T06:47:02.141Z,2.72
2022-12-03T06:48:02.112Z,2.73
2022-12-03T06:49:02.070Z,2.71
2022-12-03T06:50:02.112Z,2.71
2022-12-03T06:51:02.100Z,2.71
2022-12-03T06:52:02.033Z,2.72
2022-12-03T06:53:02.033Z,2.71
2022-12-03T06:54:02.017Z,2.71
2022-12-03T06:55:02.072Z,2.72
2022-12-03T06:56:02.012Z,2.73
2022-12-03T06:57:02.016Z,2.72
2022-12-03T06:58:02.017Z,2.71
2022-12-03T06:59:01.974Z,2.71
2022-12-03T07:00:01.990Z,2.73
2022-12-03T07:01:02.007Z,2.72
2022-12-03T07:02:01.976Z,2.75
2022-12-03T07:03:02.027Z,2.76
2022-12-03T07:04:01.965Z,2.76
2022-12-03T07:05:01.929Z,2.76
2022-12-03T07:06:01.898Z,2.82
2022-12-03T07:07:01.917Z,2.76
2022-12-03T07:08:02.078Z,2.81
2022-12-03T07:09:01.915Z,2.79
2022-12-03T07:10:01.858Z,2.81
2022-12-03T07:11:01.875Z,2.78
2022-12-03T07:12:01.881Z,2.79
2022-12-03T07:13:01.853Z,2.81
2022-12-03T07:14:05.494Z,2.84
2022-12-03T07:15:01.832Z,2.84
2022-12-03T07:16:01.870Z,2.87
2022-12-03T07:17:01.815Z,2.89
2022-12-03T07:18:01.800Z,2.89
2022-12-03T07:19:01.787Z,2.91
2022-12-03T07:20:01.800Z,2.90
2022-12-03T07:21:02.015Z,2.91
2022-12-03T07:22:01.745Z,2.89
2022-12-03T07:23:01.785Z,2.89
2022-12-03T07:24:01.810Z,2.87
2022-12-03T07:25:01.791Z,2.86
2022-12-03T07:26:01.726Z,2.81
2022-12-03T07:27:01.747Z,2.76
2022-12-03T07:28:01.682Z,2.78
2022-12-03T07:29:01.713Z,2.72
2022-12-03T07:30:01.671Z,2.75
2022-12-03T07:31:01.729Z,2.78
2022-12-03T07:32:01.660Z,2.79
2022-12-03T07:33:01.679Z,2.78
2022-12-03T07:34:01.694Z,2.79
2022-12-03T07:35:01.634Z,2.84
2022-12-03T07:36:01.619Z,2.81
2022-12-03T07:37:01.602Z,2.81
2022-12-03T07:38:01.609Z,2.79
2022-12-03T07:39:01.600Z,2.79
2022-12-03T07:40:01.569Z,2.84
2022-12-03T07:41:01.562Z,2.84
2022-12-03T07:42:01.557Z,2.82
2022-12-03T07:43:01.553Z,2.84
2022-12-03T07:44:01.544Z,2.82
2022-12-03T07:45:01.536Z,2.84
2022-12-03T07:46:01.533Z,2.76
2022-12-03T07:47:01.585Z,2.79
2022-12-03T07:48:01.576Z,2.79
2022-12-03T07:49:01.506Z,2.82
2022-12-03T07:50:01.472Z,2.84
2022-12-03T07:51:01.469Z,2.87
2022-12-03T07:52:01.456Z,2.90
2022-12-03T07:53:01.473Z,2.93
2022-12-03T07:54:01.428Z,2.93
2022-12-03T07:55:01.436Z,2.96
2022-12-03T07:56:01.411Z,2.99
2022-12-03T07:57:02.068Z,3.02
2022-12-03T07:58:01.393Z,3.05
2022-12-03T07:59:01.377Z,3.09
2022-12-03T08:00:01.374Z,3.09
2022-12-03T08:01:01.481Z,3.15
2022-12-03T08:02:01.428Z,3.11
2022-12-03T08:03:01.357Z,3.07
2022-12-03T08:04:01.335Z,3.05
2022-12-03T08:05:01.339Z,3.04
2022-12-03T08:06:01.304Z,3.02
2022-12-03T08:07:01.335Z,3.04
2022-12-03T08:08:01.454Z,3.04
2022-12-03T08:09:01.286Z,3.04
2022-12-03T08:10:01.300Z,3.00
2022-12-03T08:11:01.295Z,3.00
2022-12-03T08:12:01.262Z,2.97
2022-12-03T08:13:01.282Z,3.02
2022-12-03T08:14:01.239Z,2.94
2022-12-03T08:15:01.257Z,2.93
2022-12-03T08:16:01.261Z,2.96
2022-12-03T08:17:01.210Z,2.96
2022-12-03T08:18:01.209Z,2.96
2022-12-03T08:19:01.209Z,2.96
2022-12-03T08:20:01.189Z,2.97
2022-12-03T08:21:01.181Z,2.99
2022-12-03T08:22:01.686Z,2.97
2022-12-03T08:23:01.218Z,3.05
2022-12-03T08:24:01.131Z,3.07
2022-12-03T08:25:01.141Z,3.07
2022-12-03T08:26:01.119Z,3.12
2022-12-03T08:27:01.141Z,3.09
2022-12-03T08:28:01.109Z,3.08
2022-12-03T08:29:01.134Z,3.07
2022-12-03T08:30:01.081Z,3.11
2022-12-03T08:31:01.092Z,3.12
2022-12-03T08:32:01.098Z,3.14
2022-12-03T08:33:01.055Z,3.09
2022-12-03T08:34:01.061Z,3.11
2022-12-03T08:35:01.047Z,3.12
2022-12-03T08:36:01.017Z,3.12
2022-12-03T08:37:01.019Z,3.09
2022-12-03T08:38:01.006Z,3.11
2022-12-03T08:39:01.036Z,3.12
2022-12-03T08:40:01.022Z,3.15
2022-12-03T08:41:01.002Z,3.15
2022-12-03T08:42:00.959Z,3.18
2022-12-03T08:43:00.950Z,3.12
2022-12-03T08:44:00.936Z,3.11
2022-12-03T08:45:00.961Z,3.09
2022-12-03T08:46:00.979Z,3.11
2022-12-03T08:47:00.924Z,3.14
2022-12-03T08:48:00.930Z,3.17
2022-12-03T08:49:00.976Z,3.18
2022-12-03T08:50:00.906Z,3.18
2022-12-03T08:51:00.895Z,3.22
2022-12-03T08:52:00.889Z,3.23
2022-12-03T08:53:00.902Z,3.25
2022-12-03T08:54:02.098Z,3.25
2022-12-03T08:55:00.835Z,3.20
2022-12-03T08:56:00.878Z,3.18
2022-12-03T08:57:00.865Z,3.20
2022-12-03T08:58:00.824Z,3.20
2022-12-03T08:59:00.815Z,3.18
2022-12-03T09:00:00.789Z,3.17
2022-12-03T09:01:00.874Z,3.22
2022-12-03T09:02:00.797Z,3.26
2022-12-03T09:03:00.771Z,3.23
2022-12-03T09:04:00.812Z,3.27
2022-12-03T09:05:00.773Z,3.29
2022-12-03T09:06:00.725Z,3.30
2022-12-03T09:07:00.774Z,3.30
2022-12-03T09:08:00.748Z,3.32
2022-12-03T09:09:06.404Z,3.29
2022-12-03T09:10:00.697Z,3.25
2022-12-03T09:11:00.755Z,3.17
2022-12-03T09:12:00.764Z,3.18
2022-12-03T09:13:00.715Z,3.23
2022-12-03T09:14:00.659Z,3.20
2022-12-03T09:15:00.642Z,3.23
2022-12-03T09:16:01.032Z,3.26
2022-12-03T09:17:00.826Z,3.26
2022-12-03T09:18:00.601Z,3.26
2022-12-03T09:19:00.597Z,3.26
2022-12-03T09:20:00.588Z,3.29
2022-12-03T09:21:00.607Z,3.29
2022-12-03T09:22:00.615Z,3.32
2022-12-03T09:23:00.564Z,3.41
2022-12-03T09:24:00.541Z,3.35
2022-12-03T09:25:00.551Z,3.41
2022-12-03T09:26:00.525Z,3.45
2022-12-03T09:27:00.518Z,3.42
2022-12-03T09:28:00.526Z,3.42
2022-12-03T09:29:00.516Z,3.44
2022-12-03T09:30:00.555Z,3.32
2022-12-03T09:31:00.472Z,3.25
2022-12-03T09:32:00.528Z,3.20
2022-12-03T09:33:00.461Z,3.18
2022-12-03T09:34:00.446Z,3.18
2022-12-03T09:35:00.466Z,3.20
2022-12-03T09:36:00.475Z,3.17
2022-12-03T09:37:00.427Z,3.17
2022-12-03T09:38:00.407Z,3.22
2022-12-03T09:39:00.403Z,3.22
2022-12-03T09:40:00.406Z,3.27
2022-12-03T09:41:00.412Z,3.29
2022-12-03T09:42:00.370Z,3.35
2022-12-03T09:43:00.418Z,3.44
2022-12-03T09:44:04.699Z,3.45
2022-12-03T09:45:00.350Z,3.48
2022-12-03T09:46:00.383Z,3.48
2022-12-03T09:47:00.377Z,3.51
2022-12-03T09:48:00.359Z,3.54
2022-12-03T09:49:00.351Z,3.54
2022-12-03T09:50:00.320Z,3.56
2022-12-03T09:51:00.272Z,3.60
2022-12-03T09:52:00.268Z,3.66
2022-12-03T09:53:00.270Z,3.66
2022-12-03T09:54:00.270Z,3.67
2022-12-03T09:55:00.289Z,3.67
2022-12-03T09:56:00.254Z,3.70
2022-12-03T09:57:00.247Z,3.73
2022-12-03T09:58:00.222Z,3.66
2022-12-03T09:59:00.198Z,3.60
2022-12-03T10:00:00.184Z,3.59
2022-12-03T10:01:00.225Z,3.56
2022-12-03T10:02:00.354Z,3.52
2022-12-03T10:03:00.161Z,3.45
2022-12-03T10:04:00.186Z,3.48
2022-12-03T10:05:00.267Z,3.45
2022-12-03T10:06:00.120Z,3.49
2022-12-03T10:07:00.152Z,3.49
2022-12-03T10:08:00.212Z,3.54
2022-12-03T10:09:00.125Z,3.56
2022-12-03T10:10:00.102Z,3.56
2022-12-03T10:11:00.083Z,3.60
2022-12-03T10:12:00.081Z,3.66
2022-12-03T10:13:00.094Z,3.70
2022-12-03T10:14:00.103Z,3.73
2022-12-03T10:15:00.120Z,3.62
2022-12-03T10:16:00.028Z,3.56
2022-12-03T10:17:00.134Z,3.62
2022-12-03T10:18:00.025Z,3.62
2022-12-03T10:19:00.005Z,3.60
2022-12-03T10:20:00.016Z,3.62
2022-12-03T10:20:59.975Z,3.64
2022-12-03T10:21:59.973Z,3.63
2022-12-03T10:22:59.963Z,3.62
2022-12-03T10:23:59.954Z,3.62
2022-12-03T10:24:59.965Z,3.56
2022-12-03T10:25:59.921Z,3.51
2022-12-03T10:26:59.954Z,3.51
2022-12-03T10:27:59.942Z,3.49
2022-12-03T10:28:59.895Z,3.51
2022-12-03T10:29:59.929Z,3.52
2022-12-03T10:30:59.905Z,3.60
2022-12-03T10:31:59.887Z,3.59
2022-12-03T10:32:59.886Z,3.51
2022-12-03T10:33:59.868Z,3.45
2022-12-03T10:34:59.830Z,3.42
2022-12-03T10:35:59.858Z,3.45
2022-12-03T10:36:59.839Z,3.45
2022-12-03T10:37:59.816Z,3.46
2022-12-03T10:38:59.821Z,3.42
2022-12-03T10:39:59.785Z,3.42
2022-12-03T10:40:59.785Z,3.41
2022-12-03T10:41:59.787Z,3.37
2022-12-03T10:42:59.778Z,3.44
2022-12-03T10:43:59.756Z,3.48
2022-12-03T10:44:59.754Z,3.54
2022-12-03T10:46:03.732Z,3.55
2022-12-03T10:46:59.855Z,3.56
2022-12-03T10:47:59.711Z,3.63
2022-12-03T10:48:59.706Z,3.63
2022-12-03T10:49:59.689Z,3.64
2022-12-03T10:50:59.720Z,3.69
2022-12-03T10:51:59.692Z,3.67
2022-12-03T10:52:59.658Z,3.70
2022-12-03T10:53:59.688Z,3.70
2022-12-03T10:54:59.641Z,3.72
2022-12-03T10:55:59.762Z,3.76
2022-12-03T10:56:59.663Z,3.78
2022-12-03T10:57:59.618Z,3.78
2022-12-03T10:58:59.600Z,3.74
2022-12-03T10:59:59.594Z,3.72
2022-12-03T11:00:59.658Z,3.67
2022-12-03T11:01:59.672Z,3.69
2022-12-03T11:02:59.572Z,3.63
2022-12-03T11:03:59.615Z,3.63
2022-12-03T11:04:59.529Z,3.64
2022-12-03T11:05:59.534Z,3.69
2022-12-03T11:06:59.533Z,3.70
2022-12-03T11:07:59.561Z,3.73
2022-12-03T11:09:02.696Z,3.70
2022-12-03T11:09:59.505Z,3.67
2022-12-03T11:10:59.470Z,3.60
2022-12-03T11:11:59.489Z,3.55
2022-12-03T11:12:59.453Z,3.54
2022-12-03T11:13:59.457Z,3.55
2022-12-03T11:14:59.461Z,3.60
2022-12-03T11:15:59.509Z,3.54
2022-12-03T11:16:59.434Z,3.52
2022-12-03T11:17:59.411Z,3.52
2022-12-03T11:18:59.419Z,3.49
2022-12-03T11:19:59.379Z,3.51
2022-12-03T11:20:59.380Z,3.54
2022-12-03T11:21:59.382Z,3.60
2022-12-03T11:22:59.368Z,3.62
2022-12-03T11:23:59.351Z,3.67
2022-12-03T11:24:59.337Z,3.66
2022-12-03T11:25:59.323Z,3.60
2022-12-03T11:26:59.310Z,3.56
2022-12-03T11:27:59.339Z,3.60
2022-12-03T11:28:59.295Z,3.59
2022-12-03T11:29:59.303Z,3.56
2022-12-03T11:30:59.342Z,3.63
2022-12-03T11:31:59.287Z,3.55
2022-12-03T11:32:59.269Z,3.56
2022-12-03T11:33:59.245Z,3.60
2022-12-03T11:34:59.248Z,3.60
2022-12-03T11:35:59.225Z,3.56
2022-12-03T11:37:01.856Z,3.55
2022-12-03T11:37:59.229Z,3.56
2022-12-03T11:38:59.212Z,3.55
2022-12-03T11:39:59.192Z,3.56
2022-12-03T11:40:59.171Z,3.56
2022-12-03T11:41:59.177Z,3.56
2022-12-03T11:42:59.168Z,3.60
2022-12-03T11:43:59.155Z,3.60
2022-12-03T11:44:59.129Z,3.62
2022-12-03T11:46:04.053Z,3.56
2022-12-03T11:46:59.313Z,3.56
2022-12-03T11:47:59.152Z,3.54
2022-12-03T11:48:59.144Z,3.54
2022-12-03T11:49:59.089Z,3.51
2022-12-03T11:50:59.083Z,3.54
2022-12-03T11:51:59.068Z,3.55
2022-12-03T11:52:59.078Z,3.60
2022-12-03T11:53:59.047Z,3.60
2022-12-03T11:54:59.051Z,3.62
2022-12-03T11:56:04.230Z,3.59
2022-12-03T11:56:59.019Z,3.62
2022-12-03T11:57:59.031Z,3.64
2022-12-03T11:58:59.001Z,3.66
2022-12-03T11:59:58.999Z,3.69
2022-12-03T12:00:58.976Z,3.70
2022-12-03T12:01:58.995Z,3.72
2022-12-03T12:02:59.063Z,3.73
2022-12-03T12:03:59.022Z,3.74
2022-12-03T12:04:58.940Z,3.74
2022-12-03T12:05:58.954Z,3.73
2022-12-03T12:06:58.966Z,3.70
2022-12-03T12:07:58.969Z,3.69
2022-12-03T12:08:58.911Z,3.69
2022-12-03T12:09:58.891Z,3.70
2022-12-03T12:10:58.874Z,3.69
2022-12-03T12:11:59.009Z,3.72
2022-12-03T12:12:58.887Z,3.73
2022-12-03T12:13:58.841Z,3.72
2022-12-03T12:14:58.868Z,3.67
2022-12-03T12:15:58.881Z,3.64
2022-12-03T12:16:58.812Z,3.67
2022-12-03T12:17:58.815Z,3.66
2022-12-03T12:18:58.823Z,3.64
2022-12-03T12:19:59.219Z,3.64
2022-12-03T12:20:58.779Z,3.63
2022-12-03T12:21:58.812Z,3.70
2022-12-03T12:22:58.769Z,3.69
2022-12-03T12:23:58.766Z,3.72
2022-12-03T12:24:58.742Z,3.78
2022-12-03T12:25:58.725Z,3.85
2022-12-03T12:26:58.738Z,3.84
2022-12-03T12:27:58.707Z,3.84
2022-12-03T12:28:58.739Z,3.84
2022-12-03T12:29:58.690Z,3.84
2022-12-03T12:30:58.732Z,3.80
2022-12-03T12:31:58.732Z,3.76
2022-12-03T12:32:58.656Z,3.76
2022-12-03T12:33:58.643Z,3.73
2022-12-03T12:34:58.639Z,3.70
2022-12-03T12:35:58.655Z,3.73
2022-12-03T12:36:58.615Z,3.70
2022-12-03T12:38:00.394Z,3.63
2022-12-03T12:38:58.610Z,3.63
2022-12-03T12:39:58.664Z,3.64
2022-12-03T12:40:58.577Z,3.63
2022-12-03T12:41:58.630Z,3.64
2022-12-03T12:42:58.567Z,3.67
2022-12-03T12:43:58.547Z,3.70
2022-12-03T12:44:58.534Z,3.73
2022-12-03T12:45:58.532Z,3.78
2022-12-03T12:46:58.562Z,3.74
2022-12-03T12:47:58.518Z,3.78
2022-12-03T12:49:00.003Z,3.76
2022-12-03T12:49:58.601Z,3.74
2022-12-03T12:50:58.472Z,3.74
2022-12-03T12:51:58.493Z,3.76
2022-12-03T12:52:58.448Z,3.73
2022-12-03T12:53:58.474Z,3.70
2022-12-03T12:55:03.198Z,3.67
2022-12-03T12:55:58.446Z,3.66
2022-12-03T12:56:58.452Z,3.60
2022-12-03T12:57:58.439Z,3.63
2022-12-03T12:58:58.427Z,3.62
2022-12-03T12:59:58.420Z,3.60
2022-12-03T13:00:58.503Z,3.63
2022-12-03T13:01:58.449Z,3.56
2022-12-03T13:02:58.449Z,3.56
2022-12-03T13:04:02.533Z,3.56
2022-12-03T13:04:58.482Z,3.60
2022-12-03T13:05:58.774Z,3.56
2022-12-03T13:06:58.429Z,3.60
2022-12-03T13:07:58.533Z,3.64
2022-12-03T13:08:58.431Z,3.69
2022-12-03T13:09:58.475Z,3.70
2022-12-03T13:10:58.417Z,3.72
2022-12-03T13:11:58.535Z,3.73
2022-12-03T13:12:58.465Z,3.80
2022-12-03T13:13:58.523Z,3.81
2022-12-03T13:14:58.489Z,3.76
2022-12-03T13:15:58.812Z,3.66
2022-12-03T13:16:58.709Z,3.59
2022-12-03T13:17:58.499Z,3.52